Time,TemperatureF,DewpointF,PressureIn,WindDirection,WindDirectionDegrees,WindSpeedMPH,WindSpeedGustMPH,Humidity,HourlyPrecipIn,Conditions,Clouds,dailyrainin,SoftwareType,DateUTC
2013-11-20 00:01:00,24.3,19.8,30.30,NE,45,3.5,0.0,83,0.00,CLR,,0.00,WeatherDisplay:10.37,2013-11-20 05:01:00,
2013-11-20 00:02:00,24.3,19.8,30.30,NE,38,3.5,3.5,83,0.00,CLR,,0.00,WeatherDisplay:10.37,2013-11-20 05:02:00,
2013-11-20 00:07:00,24.1,19.7,30.30,ENE,60,3.5,0.0,83,0.00,CLR,,0.00,WeatherDisplay:10.37,2013-11-20 05:07:00,
2013-11-20 00:12:00,23.9,19.5,30.30,NE,39,3.5,3.6,83,0.00,CLR,,0.00,WeatherDisplay:10.37,2013-11-20 05:12:00,
2013-11-20 00:17:00,24.3,19.8,30.30,NE,38,3.5,3.5,83,0.00,CLR,,0.00,WeatherDisplay:10.37,2013-11-20 05:17:00,
2013-11-20 00:22:00,24.3,19.8,30.30,NE,54,4.0,4.0,83,0.00,CLR,,0.00,WeatherDisplay:10.37,2013-11-20 05:22:00,
2013-11-20 00:27:00,24.1,19.7,30.30,NE,54,3.5,3.5,83,0.00,CLR,,0.00,WeatherDisplay:10.37,2013-11-20 05:27:00,
2013-11-20 00:32:00,24.1,19.7,30.30,NE,38,5.8,5.8,83,0.00,CLR,,0.00,WeatherDisplay:10.37,2013-11-20 05:32:00,
2013-11-20 00:37:00,23.9,19.5,30.30,ENE,75,3.5,0.0,83,0.00,CLR,,0.00,WeatherDisplay:10.37,2013-11-20 05:37:00,
2013-11-20 00:42:00,23.9,19.5,30.30,NE,35,5.8,5.8,83,0.00,CLR,,0.00,WeatherDisplay:10.37,2013-11-20 05:42:00,
2013-11-20 00:47:00,23.9,19.5,30.30,NE,38,3.5,3.5,83,0.00,CLR,,0.00,WeatherDisplay:10.37,2013-11-20 05:47:00,
2013-11-20 00:52:00,23.9,19.5,30.30,NE,44,3.5,0.0,83,0.00,CLR,,0.00,WeatherDisplay:10.37,2013-11-20 05:52:00,
2013-11-20 00:57:00,23.7,19.3,30.30,NE,36,3.5,0.0,83,0.00,CLR,,0.00,WeatherDisplay:10.37,2013-11-20 05:57:00,
2013-11-20 01:02:00,23.9,19.5,30.30,ENE,76,3.5,3.5,83,0.00,CLR,,0.00,WeatherDisplay:10.37,2013-11-20 06:02:00,
2013-11-20 01:07:00,23.9,19.5,30.27,NNE,28,2.7,0.0,83,0.00,CLR,,0.00,WeatherDisplay:10.37,2013-11-20 06:07:00,
2013-11-20 01:12:00,23.9,19.5,30.27,NE,38,4.0,0.0,83,0.00,CLR,,0.00,WeatherDisplay:10.37,2013-11-20 06:12:00,
2013-11-20 01:17:00,23.7,19.3,30.27,NE,41,5.8,0.0,83,0.00,CLR,,0.00,WeatherDisplay:10.37,2013-11-20 06:17:00,
2013-11-20 01:22:00,23.7,19.3,30.27,NE,37,3.6,3.6,83,0.00,CLR,,0.00,WeatherDisplay:10.37,2013-11-20 06:22:00,
2013-11-20 01:27:00,24.1,19.7,30.27,East,84,3.5,3.5,83,0.00,CLR,,0.00,WeatherDisplay:10.37,2013-11-20 06:27:00,
2013-11-20 01:32:00,24.1,19.7,30.27,ENE,61,5.8,5.8,83,0.00,CLR,,0.00,WeatherDisplay:10.37,2013-11-20 06:32:00,
2013-11-20 01:37:00,24.1,19.7,30.30,ENE,58,5.8,5.8,83,0.00,CLR,,0.00,WeatherDisplay:10.37,2013-11-20 06:37:00,
2013-11-20 01:42:00,24.1,19.7,30.30,ENE,64,5.8,5.8,83,0.00,CLR,,0.00,WeatherDisplay:10.37,2013-11-20 06:42:00,
2013-11-20 01:47:00,24.3,19.8,30.30,ENE,73,7.2,7.2,83,0.00,CLR,,0.00,WeatherDisplay:10.37,2013-11-20 06:47:00,
2013-11-20 01:52:00,24.4,20.0,30.30,NE,42,4.0,4.0,83,0.00,CLR,,0.00,WeatherDisplay:10.37,2013-11-20 06:52:00,
2013-11-20 01:57:00,24.3,19.8,30.30,ENE,78,5.8,5.8,83,0.00,CLR,,0.00,WeatherDisplay:10.37,2013-11-20 06:57:00,
2013-11-20 02:02:00,24.1,19.7,30.30,SE,146,3.5,3.5,83,0.00,CLR,,0.00,WeatherDisplay:10.37,2013-11-20 07:02:00,
2013-11-20 02:07:00,24.1,19.7,30.30,ESE,104,5.8,5.8,83,0.00,CLR,,0.00,WeatherDisplay:10.37,2013-11-20 07:07:00,
2013-11-20 02:12:00,24.3,19.8,30.30,NE,44,3.5,3.5,83,0.00,CLR,,0.00,WeatherDisplay:10.37,2013-11-20 07:12:00,
2013-11-20 02:17:00,23.9,19.5,30.30,ENE,73,5.4,5.4,83,0.00,CLR,,0.00,WeatherDisplay:10.37,2013-11-20 07:17:00,
2013-11-20 02:22:00,23.9,19.5,30.30,ENE,65,3.6,3.6,83,0.00,CLR,,0.00,WeatherDisplay:10.37,2013-11-20 07:22:00,
2013-11-20 02:27:00,23.9,19.5,30.30,East,85,5.8,5.8,83,0.00,CLR,,0.00,WeatherDisplay:10.37,2013-11-20 07:27:00,
2013-11-20 02:32:00,24.1,19.7,30.30,ENE,62,2.7,2.7,83,0.00,CLR,,0.00,WeatherDisplay:10.37,2013-11-20 07:32:00,
2013-11-20 02:37:00,24.1,19.7,30.30,NE,49,5.8,5.8,83,0.00,CLR,,0.00,WeatherDisplay:10.37,2013-11-20 07:37:00,
2013-11-20 02:42:00,24.1,19.7,30.30,East,90,5.8,5.8,83,0.00,CLR,,0.00,WeatherDisplay:10.37,2013-11-20 07:42:00,
2013-11-20 02:47:00,24.1,19.7,30.30,East,84,4.6,4.6,83,0.00,CLR,,0.00,WeatherDisplay:10.37,2013-11-20 07:47:00,
2013-11-20 02:52:00,24.4,20.0,30.30,East,84,5.8,5.8,83,0.00,CLR,,0.00,WeatherDisplay:10.37,2013-11-20 07:52:00,
2013-11-20 02:57:00,24.6,20.2,30.30,NE,55,5.8,5.8,83,0.00,CLR,,0.00,WeatherDisplay:10.37,2013-11-20 07:57:00,
2013-11-20 03:02:00,24.8,20.4,30.30,ENE,58,5.8,5.8,83,0.00,CLR,,0.00,WeatherDisplay:10.37,2013-11-20 08:02:00,
2013-11-20 03:07:00,24.8,20.4,30.30,NE,53,5.8,5.8,83,0.00,CLR,,0.00,WeatherDisplay:10.37,2013-11-20 08:07:00,
2013-11-20 03:12:00,25.0,20.3,30.30,NE,49,5.8,5.8,82,0.00,CLR,,0.00,WeatherDisplay:10.37,2013-11-20 08:12:00,
2013-11-20 03:17:00,25.0,20.3,30.30,NE,49,0.0,0.0,82,0.00,CLR,,0.00,WeatherDisplay:10.37,2013-11-20 08:17:00,
2013-11-20 03:22:00,25.0,20.3,30.30,East,101,4.6,4.6,82,0.00,CLR,,0.00,WeatherDisplay:10.37,2013-11-20 08:22:00,
2013-11-20 03:27:00,24.8,20.1,30.30,ENE,78,5.8,5.8,82,0.00,CLR,,0.00,WeatherDisplay:10.37,2013-11-20 08:27:00,
2013-11-20 03:32:00,24.6,19.9,30.30,ENE,70,5.8,5.8,82,0.00,CLR,,0.00,WeatherDisplay:10.37,2013-11-20 08:32:00,
2013-11-20 03:37:00,24.4,19.7,30.30,ESE,120,5.8,5.8,82,0.00,CLR,,0.00,WeatherDisplay:10.37,2013-11-20 08:37:00,
2013-11-20 03:42:00,24.4,19.7,30.30,NE,41,10.4,10.4,82,0.00,CLR,,0.00,WeatherDisplay:10.37,2013-11-20 08:42:00,
2013-11-20 03:47:00,24.4,19.7,30.30,ENE,64,6.3,6.3,82,0.00,CLR,,0.00,WeatherDisplay:10.37,2013-11-20 08:47:00,
2013-11-20 03:52:00,24.4,19.7,30.30,East,83,5.8,5.8,82,0.00,CLR,,0.00,WeatherDisplay:10.37,2013-11-20 08:52:00,
2013-11-20 03:57:00,24.4,19.7,30.30,ENE,68,5.8,5.8,82,0.00,CLR,,0.00,WeatherDisplay:10.37,2013-11-20 08:57:00,
2013-11-20 04:02:00,24.3,19.6,30.30,ESE,102,8.1,8.1,82,0.00,CLR,,0.00,WeatherDisplay:10.37,2013-11-20 09:02:00,
2013-11-20 04:07:00,24.3,19.6,30.30,ENE,71,5.8,5.8,82,0.00,CLR,,0.00,WeatherDisplay:10.37,2013-11-20 09:07:00,
2013-11-20 04:12:00,24.1,19.4,30.30,ENE,72,6.3,6.3,82,0.00,CLR,,0.00,WeatherDisplay:10.37,2013-11-20 09:12:00,
2013-11-20 04:17:00,23.9,19.2,30.30,ENE,60,3.5,3.5,82,0.00,CLR,,0.00,WeatherDisplay:10.37,2013-11-20 09:17:00,
2013-11-20 04:22:00,23.7,19.0,30.30,NE,49,4.9,4.9,82,0.00,CLR,,0.00,WeatherDisplay:10.37,2013-11-20 09:22:00,
2013-11-20 04:27:00,23.7,19.0,30.30,East,93,5.8,5.8,82,0.00,CLR,,0.00,WeatherDisplay:10.37,2013-11-20 09:27:00,
2013-11-20 04:32:00,23.5,18.9,30.30,East,87,3.5,3.5,82,0.00,CLR,,0.00,WeatherDisplay:10.37,2013-11-20 09:32:00,
2013-11-20 04:37:00,23.7,19.0,30.30,ESE,106,8.1,8.1,82,0.00,CLR,,0.00,WeatherDisplay:10.37,2013-11-20 09:37:00,
2013-11-20 04:42:00,23.7,19.0,30.30,SE,131,2.3,2.3,82,0.00,CLR,,0.00,WeatherDisplay:10.37,2013-11-20 09:42:00,
2013-11-20 04:47:00,23.7,19.0,30.30,ESE,109,9.2,9.2,82,0.00,CLR,,0.00,WeatherDisplay:10.37,2013-11-20 09:47:00,
2013-11-20 04:52:00,23.7,19.0,30.30,ENE,62,10.4,10.4,82,0.00,CLR,,0.00,WeatherDisplay:10.37,2013-11-20 09:52:00,
2013-11-20 04:57:00,23.9,19.2,30.30,SE,145,5.8,5.8,82,0.00,CLR,,0.00,WeatherDisplay:10.37,2013-11-20 09:57:00,
2013-11-20 05:02:00,23.9,19.2,30.30,East,97,5.8,5.8,82,0.00,CLR,,0.00,WeatherDisplay:10.37,2013-11-20 10:02:00,
2013-11-20 05:07:00,23.9,19.2,30.30,SE,145,5.8,5.8,82,0.00,CLR,,0.00,WeatherDisplay:10.37,2013-11-20 10:07:00,
2013-11-20 05:12:00,23.9,19.2,30.30,ESE,113,5.8,5.8,82,0.00,CLR,,0.00,WeatherDisplay:10.37,2013-11-20 10:12:00,
2013-11-20 05:17:00,23.9,19.2,30.30,ESE,122,5.8,5.8,82,0.00,CLR,,0.00,WeatherDisplay:10.37,2013-11-20 10:17:00,
2013-11-20 05:22:00,23.7,19.0,30.30,SE,127,8.1,8.1,82,0.00,CLR,,0.00,WeatherDisplay:10.37,2013-11-20 10:22:00,
2013-11-20 05:27:00,23.7,19.0,30.30,East,94,8.1,8.1,82,0.00,CLR,,0.00,WeatherDisplay:10.37,2013-11-20 10:27:00,
2013-11-20 05:32:00,23.5,18.9,30.30,SE,127,5.4,5.4,82,0.00,CLR,,0.00,WeatherDisplay:10.37,2013-11-20 10:32:00,
2013-11-20 05:37:00,23.5,18.9,30.33,SE,131,5.8,5.8,82,0.00,CLR,,0.00,WeatherDisplay:10.37,2013-11-20 10:37:00,
2013-11-20 05:42:00,23.4,18.7,30.33,ESE,105,3.5,3.5,82,0.00,CLR,,0.00,WeatherDisplay:10.37,2013-11-20 10:42:00,
2013-11-20 05:47:00,23.4,18.7,30.33,ESE,115,4.6,4.6,82,0.00,CLR,,0.00,WeatherDisplay:10.37,2013-11-20 10:47:00,
2013-11-20 05:52:00,23.2,18.5,30.33,ENE,76,5.8,5.8,82,0.00,CLR,,0.00,WeatherDisplay:10.37,2013-11-20 10:52:00,
2013-11-20 05:57:00,23.0,18.3,30.33,SE,127,3.5,3.5,82,0.00,CLR,,0.00,WeatherDisplay:10.37,2013-11-20 10:57:00,
2013-11-20 06:02:00,22.8,18.1,30.33,East,91,8.1,8.1,82,0.00,CLR,,0.00,WeatherDisplay:10.37,2013-11-20 11:02:00,
2013-11-20 06:07:00,22.8,18.1,30.33,East,97,5.8,5.8,82,0.00,CLR,,0.00,WeatherDisplay:10.37,2013-11-20 11:07:00,
2013-11-20 06:12:00,23.2,18.5,30.33,ESE,107,5.8,5.8,82,0.00,CLR,,0.00,WeatherDisplay:10.37,2013-11-20 11:12:00,
2013-11-20 06:17:00,23.4,18.7,30.33,ESE,113,8.1,8.1,82,0.00,CLR,,0.00,WeatherDisplay:10.37,2013-11-20 11:17:00,
2013-11-20 06:22:00,23.4,18.7,30.33,SE,146,5.8,5.8,82,0.00,CLR,,0.00,WeatherDisplay:10.37,2013-11-20 11:22:00,
2013-11-20 06:27:00,23.2,18.5,30.33,SE,125,5.8,5.8,82,0.00,CLR,,0.00,WeatherDisplay:10.37,2013-11-20 11:27:00,
2013-11-20 06:32:00,23.4,18.7,30.33,SE,141,6.3,6.3,82,0.00,CLR,,0.00,WeatherDisplay:10.37,2013-11-20 11:32:00,
2013-11-20 06:37:00,23.4,18.7,30.33,ENE,70,4.6,4.6,82,0.00,CLR,,0.00,WeatherDisplay:10.37,2013-11-20 11:37:00,
2013-11-20 06:42:00,23.2,18.5,30.33,ESE,117,4.6,4.6,82,0.00,CLR,,0.00,WeatherDisplay:10.37,2013-11-20 11:42:00,
2013-11-20 06:47:00,23.0,18.3,30.33,ESE,112,5.8,5.8,82,0.00,CLR,,0.00,WeatherDisplay:10.37,2013-11-20 11:47:00,
2013-11-20 06:52:00,23.0,18.3,30.33,East,101,9.2,9.2,82,0.00,CLR,,0.00,WeatherDisplay:10.37,2013-11-20 11:52:00,
2013-11-20 06:57:00,23.2,18.5,30.33,ESE,114,5.8,5.8,82,0.00,CLR,,0.00,WeatherDisplay:10.37,2013-11-20 11:57:00,
2013-11-20 07:03:00,23.2,18.2,30.33,ESE,123,8.3,8.3,81,0.00,CLR,,0.00,WeatherDisplay:10.37,2013-11-20 12:03:00,
2013-11-20 07:08:00,23.0,18.3,30.36,ESE,121,8.1,8.1,82,0.00,CLR,,0.00,WeatherDisplay:10.37,2013-11-20 12:08:00,
2013-11-20 07:13:00,22.8,18.1,30.36,East,91,5.8,5.8,82,0.00,CLR,,0.00,WeatherDisplay:10.37,2013-11-20 12:13:00,
2013-11-20 07:18:00,22.6,18.0,30.36,ESE,115,4.6,4.6,82,0.00,CLR,,0.00,WeatherDisplay:10.37,2013-11-20 12:18:00,
2013-11-20 07:23:00,22.8,18.1,30.36,ESE,111,5.8,5.8,82,0.00,CLR,,0.00,WeatherDisplay:10.37,2013-11-20 12:23:00,
2013-11-20 07:28:00,22.8,18.1,30.36,East,99,5.8,5.8,82,0.00,CLR,,0.00,WeatherDisplay:10.37,2013-11-20 12:28:00,
2013-11-20 07:33:00,23.0,18.3,30.36,SE,134,8.1,8.1,82,0.00,CLR,,0.00,WeatherDisplay:10.37,2013-11-20 12:33:00,
2013-11-20 07:38:00,23.0,18.3,30.36,East,87,6.3,6.3,82,0.00,CLR,,0.00,WeatherDisplay:10.37,2013-11-20 12:38:00,
2013-11-20 07:43:00,23.2,18.2,30.36,ESE,108,5.8,5.8,81,0.00,CLR,,0.00,WeatherDisplay:10.37,2013-11-20 12:43:00,
2013-11-20 07:48:00,23.4,18.4,30.36,ESE,111,8.1,8.1,81,0.00,CLR,,0.00,WeatherDisplay:10.37,2013-11-20 12:48:00,
2013-11-20 07:53:00,23.5,18.6,30.36,SE,145,6.3,6.3,81,0.00,CLR,,0.00,WeatherDisplay:10.37,2013-11-20 12:53:00,
2013-11-20 07:58:00,23.7,18.7,30.36,ENE,74,6.9,6.9,81,0.00,CLR,,0.00,WeatherDisplay:10.37,2013-11-20 12:58:00,
2013-11-20 08:03:00,23.9,18.9,30.36,NE,53,5.8,5.8,81,0.00,CLR,,0.00,WeatherDisplay:10.37,2013-11-20 13:03:00,
2013-11-20 08:08:00,24.3,19.3,30.36,ENE,72,4.9,4.9,81,0.00,CLR,,0.00,WeatherDisplay:10.37,2013-11-20 13:08:00,
2013-11-20 08:13:00,24.6,19.6,30.36,ESE,123,8.1,8.1,81,0.00,CLR,,0.00,WeatherDisplay:10.37,2013-11-20 13:13:00,
2013-11-20 08:18:00,25.0,19.1,30.36,East,99,5.8,5.8,78,0.00,CLR,,0.00,WeatherDisplay:10.37,2013-11-20 13:18:00,
2013-11-20 08:23:00,25.2,19.3,30.36,ENE,68,8.1,8.1,78,0.00,CLR,,0.00,WeatherDisplay:10.37,2013-11-20 13:23:00,
2013-11-20 08:28:00,25.3,19.4,30.36,ESE,122,8.1,8.1,78,0.00,CLR,,0.00,WeatherDisplay:10.37,2013-11-20 13:28:00,
2013-11-20 08:33:00,25.7,19.2,30.36,ESE,112,5.8,5.8,76,0.00,CLR,,0.00,WeatherDisplay:10.37,2013-11-20 13:33:00,
2013-11-20 08:38:00,26.1,19.5,30.36,SSE,160,4.6,4.6,76,0.00,CLR,,0.00,WeatherDisplay:10.37,2013-11-20 13:38:00,
2013-11-20 08:43:00,26.2,19.7,30.36,SE,138,6.9,6.9,76,0.00,CLR,,0.00,WeatherDisplay:10.37,2013-11-20 13:43:00,
2013-11-20 08:48:00,26.4,19.9,30.36,SE,137,8.0,8.0,76,0.00,CLR,,0.00,WeatherDisplay:10.37,2013-11-20 13:48:00,
2013-11-20 08:53:00,26.6,19.4,30.39,ESE,109,4.0,4.0,74,0.00,CLR,,0.00,WeatherDisplay:10.37,2013-11-20 13:53:00,
2013-11-20 08:58:00,26.8,19.3,30.39,ESE,112,8.1,8.1,73,0.00,CLR,,0.00,WeatherDisplay:10.37,2013-11-20 13:58:00,
2013-11-20 09:03:00,27.0,19.5,30.39,SE,135,8.1,8.1,73,0.00,CLR,,0.00,WeatherDisplay:10.37,2013-11-20 14:03:00,
2013-11-20 09:08:00,27.1,19.6,30.39,SE,141,8.1,8.1,73,0.00,CLR,,0.00,WeatherDisplay:10.37,2013-11-20 14:08:00,
2013-11-20 09:13:00,27.5,20.0,30.39,SE,124,8.1,8.1,73,0.00,CLR,,0.00,WeatherDisplay:10.37,2013-11-20 14:13:00,
2013-11-20 09:18:00,27.9,20.3,30.39,ESE,115,8.1,8.1,73,0.00,CLR,,0.00,WeatherDisplay:10.37,2013-11-20 14:18:00,
2013-11-20 09:23:00,28.0,20.5,30.39,SSE,147,9.2,9.2,73,0.00,CLR,,0.00,WeatherDisplay:10.37,2013-11-20 14:23:00,
2013-11-20 09:28:00,28.2,20.7,30.39,SE,146,11.5,11.5,73,0.00,CLR,,0.00,WeatherDisplay:10.37,2013-11-20 14:28:00,
2013-11-20 09:33:00,28.8,21.2,30.39,SE,128,8.1,8.1,73,0.00,CLR,,0.00,WeatherDisplay:10.37,2013-11-20 14:33:00,
2013-11-20 09:38:00,29.5,21.9,30.39,ESE,118,11.5,11.5,73,0.00,CLR,,0.00,WeatherDisplay:10.37,2013-11-20 14:38:00,
2013-11-20 09:43:00,30.2,21.6,30.39,ESE,107,10.4,10.4,70,0.00,CLR,,0.00,WeatherDisplay:10.37,2013-11-20 14:43:00,
2013-11-20 09:48:00,31.1,22.5,30.39,ESE,109,9.2,9.2,70,0.00,CLR,,0.00,WeatherDisplay:10.37,2013-11-20 14:48:00,
2013-11-20 09:53:00,31.8,23.1,30.39,SE,127,12.7,12.7,70,0.00,CLR,,0.00,WeatherDisplay:10.37,2013-11-20 14:53:00,
2013-11-20 09:58:00,32.2,23.5,30.39,East,94,10.4,10.4,70,0.00,CLR,,0.00,WeatherDisplay:10.37,2013-11-20 14:58:00,
2013-11-20 10:03:00,32.4,23.7,30.39,SE,137,13.8,13.8,70,0.00,CLR,,0.00,WeatherDisplay:10.37,2013-11-20 15:03:00,
2013-11-20 10:08:00,32.5,23.8,30.39,ESE,120,12.7,12.7,70,0.00,CLR,,0.00,WeatherDisplay:10.37,2013-11-20 15:08:00,
2013-11-20 10:13:00,32.9,24.2,30.39,SE,131,11.5,11.5,70,0.00,CLR,,0.00,WeatherDisplay:10.37,2013-11-20 15:13:00,
2013-11-20 10:18:00,33.3,24.5,30.39,SSE,147,8.1,8.3,70,0.00,CLR,,0.00,WeatherDisplay:10.37,2013-11-20 15:18:00,
2013-11-20 10:23:00,33.3,24.5,30.39,East,85,15.0,15.0,70,0.00,CLR,,0.00,WeatherDisplay:10.37,2013-11-20 15:23:00,
2013-11-20 10:28:00,33.4,24.7,30.39,SSE,150,10.9,10.9,70,0.00,CLR,,0.00,WeatherDisplay:10.37,2013-11-20 15:28:00,
2013-11-20 10:33:00,33.6,24.9,30.39,SSE,148,12.7,12.7,70,0.00,CLR,,0.00,WeatherDisplay:10.37,2013-11-20 15:33:00,
2013-11-20 10:38:00,34.0,25.2,30.39,East,100,13.6,13.6,70,0.00,CLR,,0.00,WeatherDisplay:10.37,2013-11-20 15:38:00,
2013-11-20 10:44:00,34.3,25.6,30.39,SE,133,15.0,15.0,70,0.00,CLR,,0.00,WeatherDisplay:10.37,2013-11-20 15:44:00,
2013-11-20 10:49:00,34.3,25.6,30.39,East,99,15.0,15.0,70,0.00,CLR,,0.00,WeatherDisplay:10.37,2013-11-20 15:49:00,
2013-11-20 10:54:00,34.7,25.9,30.39,East,79,11.5,11.5,70,0.00,CLR,,0.00,WeatherDisplay:10.37,2013-11-20 15:54:00,
2013-11-20 10:59:00,34.9,26.1,30.39,ESE,119,15.4,15.4,70,0.00,CLR,,0.00,WeatherDisplay:10.37,2013-11-20 15:59:00,
2013-11-20 11:04:00,35.1,26.3,30.39,SE,132,12.7,12.7,70,0.00,CLR,,0.00,WeatherDisplay:10.37,2013-11-20 16:04:00,
2013-11-20 11:09:00,35.2,26.4,30.39,SE,142,11.5,11.5,70,0.00,CLR,,0.00,WeatherDisplay:10.37,2013-11-20 16:09:00,
2013-11-20 11:14:00,35.4,26.6,30.39,ESE,120,12.7,12.7,70,0.00,CLR,,0.00,WeatherDisplay:10.37,2013-11-20 16:14:00,
2013-11-20 11:19:00,36.1,26.9,30.39,SE,140,6.3,6.3,69,0.00,CLR,,0.00,WeatherDisplay:10.37,2013-11-20 16:19:00,
2013-11-20 11:24:00,36.3,28.2,30.39,SE,143,11.5,11.5,72,0.00,CLR,,0.00,WeatherDisplay:10.37,2013-11-20 16:24:00,
2013-11-20 11:29:00,36.9,28.7,30.39,SE,139,15.0,15.0,72,0.00,CLR,,0.00,WeatherDisplay:10.37,2013-11-20 16:29:00,
2013-11-20 11:34:00,36.9,28.7,30.39,SE,132,8.7,8.7,72,0.00,CLR,,0.00,WeatherDisplay:10.37,2013-11-20 16:34:00,
2013-11-20 11:39:00,36.9,28.7,30.39,SE,141,15.0,15.0,72,0.00,CLR,,0.00,WeatherDisplay:10.37,2013-11-20 16:39:00,
2013-11-20 11:44:00,37.4,28.9,30.39,ESE,115,12.7,12.7,71,0.00,CLR,,0.00,WeatherDisplay:10.37,2013-11-20 16:44:00,
2013-11-20 11:49:00,36.9,28.7,30.39,ESE,121,15.0,15.0,72,0.00,CLR,,0.00,WeatherDisplay:10.37,2013-11-20 16:49:00,
2013-11-20 11:54:00,36.9,28.7,30.36,SE,129,11.5,11.5,72,0.00,CLR,,0.00,WeatherDisplay:10.37,2013-11-20 16:54:00,
2013-11-20 11:59:00,36.9,27.6,30.36,ESE,109,10.4,10.4,69,0.00,CLR,,0.00,WeatherDisplay:10.37,2013-11-20 16:59:00,
2013-11-20 12:04:00,36.9,27.6,30.36,SE,127,12.7,12.7,69,0.00,CLR,,0.00,WeatherDisplay:10.37,2013-11-20 17:04:00,
2013-11-20 12:09:00,36.9,27.6,30.36,ESE,109,10.4,10.4,69,0.00,CLR,,0.00,WeatherDisplay:10.37,2013-11-20 17:09:00,
2013-11-20 12:14:00,36.7,27.5,30.36,SE,144,12.7,12.7,69,0.00,CLR,,0.00,WeatherDisplay:10.37,2013-11-20 17:14:00,
2013-11-20 12:19:00,36.7,27.5,30.36,SSE,150,13.2,13.2,69,0.00,CLR,,0.00,WeatherDisplay:10.37,2013-11-20 17:19:00,
2013-11-20 12:24:00,36.9,28.7,30.36,SE,130,12.7,12.7,72,0.00,CLR,,0.00,WeatherDisplay:10.37,2013-11-20 17:24:00,
2013-11-20 12:29:00,36.9,28.7,30.36,SE,135,12.7,12.7,72,0.00,CLR,,0.00,WeatherDisplay:10.37,2013-11-20 17:29:00,
2013-11-20 12:34:00,37.0,28.8,30.36,ESE,118,18.4,18.4,72,0.00,CLR,,0.00,WeatherDisplay:10.37,2013-11-20 17:34:00,
2013-11-20 12:39:00,37.0,28.8,30.36,ESE,119,15.0,15.0,72,0.00,CLR,,0.00,WeatherDisplay:10.37,2013-11-20 17:39:00,
2013-11-20 12:44:00,37.4,28.9,30.36,SE,128,8.1,8.1,71,0.00,CLR,,0.00,WeatherDisplay:10.37,2013-11-20 17:44:00,
2013-11-20 12:49:00,37.4,28.9,30.36,SSE,150,12.7,12.7,71,0.00,CLR,,0.00,WeatherDisplay:10.37,2013-11-20 17:49:00,
2013-11-20 12:54:00,37.4,28.9,30.36,ESE,122,12.7,12.7,71,0.00,CLR,,0.00,WeatherDisplay:10.37,2013-11-20 17:54:00,
2013-11-20 12:59:00,37.4,28.9,30.36,SE,135,15.0,15.0,71,0.00,CLR,,0.00,WeatherDisplay:10.37,2013-11-20 17:59:00,
2013-11-20 13:04:00,37.6,29.0,30.36,SE,128,12.7,12.7,71,0.00,CLR,,0.00,WeatherDisplay:10.37,2013-11-20 18:04:00,
2013-11-20 13:09:00,37.9,29.4,30.36,SSE,147,12.7,12.7,71,0.00,CLR,,0.00,WeatherDisplay:10.37,2013-11-20 18:09:00,
2013-11-20 13:14:00,38.1,29.5,30.36,SE,128,10.4,10.4,71,0.00,CLR,,0.00,WeatherDisplay:10.37,2013-11-20 18:14:00,
2013-11-20 13:19:00,38.3,29.7,30.36,SE,142,11.5,11.5,71,0.00,CLR,,0.00,WeatherDisplay:10.37,2013-11-20 18:19:00,
2013-11-20 13:24:00,38.5,29.9,30.36,SSE,166,6.9,6.9,71,0.00,CLR,,0.00,WeatherDisplay:10.37,2013-11-20 18:24:00,
2013-11-20 13:29:00,38.5,29.9,30.36,ESE,110,12.7,12.7,71,0.00,CLR,,0.00,WeatherDisplay:10.37,2013-11-20 18:29:00,
2013-11-20 13:34:00,38.5,29.9,30.36,SE,125,11.5,11.5,71,0.00,CLR,,0.00,WeatherDisplay:10.37,2013-11-20 18:34:00,
2013-11-20 13:39:00,38.3,29.7,30.36,SSE,150,10.4,10.4,71,0.00,CLR,,0.00,WeatherDisplay:10.37,2013-11-20 18:39:00,
2013-11-20 13:44:00,38.3,29.7,30.36,SE,135,12.7,12.7,71,0.00,CLR,,0.00,WeatherDisplay:10.37,2013-11-20 18:44:00,
2013-11-20 13:49:00,38.3,29.7,30.36,South,172,12.7,12.7,71,0.00,CLR,,0.00,WeatherDisplay:10.37,2013-11-20 18:49:00,
2013-11-20 13:54:00,38.3,29.7,30.36,ESE,113,11.5,11.5,71,0.00,CLR,,0.00,WeatherDisplay:10.37,2013-11-20 18:54:00,
2013-11-20 13:59:00,38.1,29.5,30.36,SSE,155,17.3,17.3,71,0.00,CLR,,0.00,WeatherDisplay:10.37,2013-11-20 18:59:00,
2013-11-20 14:04:00,38.1,29.5,30.36,SE,128,9.2,9.2,71,0.00,CLR,,0.00,WeatherDisplay:10.37,2013-11-20 19:04:00,
2013-11-20 14:09:00,38.5,29.9,30.33,ESE,106,12.7,12.7,71,0.00,CLR,,0.00,WeatherDisplay:10.37,2013-11-20 19:09:00,
2013-11-20 14:14:00,38.5,29.9,30.33,SE,136,12.7,12.7,71,0.00,CLR,,0.00,WeatherDisplay:10.37,2013-11-20 19:14:00,
2013-11-20 14:19:00,38.7,30.1,30.33,ESE,110,12.3,12.3,71,0.00,CLR,,0.00,WeatherDisplay:10.37,2013-11-20 19:19:00,
2013-11-20 14:24:00,38.8,30.2,30.33,South,180,12.7,12.7,71,0.00,CLR,,0.00,WeatherDisplay:10.37,2013-11-20 19:24:00,
2013-11-20 14:29:00,38.8,30.2,30.33,SE,141,12.7,12.7,71,0.00,CLR,,0.00,WeatherDisplay:10.37,2013-11-20 19:29:00,
2013-11-20 14:34:00,38.7,30.1,30.33,SSE,150,9.2,9.2,71,0.00,CLR,,0.00,WeatherDisplay:10.37,2013-11-20 19:34:00,
2013-11-20 14:39:00,38.7,30.1,30.33,SE,140,12.7,12.7,71,0.00,CLR,,0.00,WeatherDisplay:10.37,2013-11-20 19:39:00,
2013-11-20 14:44:00,38.7,30.1,30.33,SE,137,12.7,12.7,71,0.00,CLR,,0.00,WeatherDisplay:10.37,2013-11-20 19:44:00,
2013-11-20 14:49:00,38.7,30.1,30.33,SE,136,14.5,14.5,71,0.00,CLR,,0.00,WeatherDisplay:10.37,2013-11-20 19:49:00,
2013-11-20 14:54:00,38.5,29.9,30.33,SSE,161,12.7,12.7,71,0.00,CLR,,0.00,WeatherDisplay:10.37,2013-11-20 19:54:00,
2013-11-20 14:59:00,38.5,29.9,30.33,ESE,123,12.7,12.7,71,0.00,CLR,,0.00,WeatherDisplay:10.37,2013-11-20 19:59:00,
2013-11-20 15:04:00,38.5,29.9,30.33,SE,138,11.5,11.5,71,0.00,CLR,,0.00,WeatherDisplay:10.37,2013-11-20 20:04:00,
2013-11-20 15:09:00,38.3,29.7,30.33,SE,131,15.0,15.0,71,0.00,CLR,,0.00,WeatherDisplay:10.37,2013-11-20 20:09:00,
2013-11-20 15:14:00,38.3,29.7,30.33,SSE,159,10.4,10.4,71,0.00,CLR,,0.00,WeatherDisplay:10.37,2013-11-20 20:14:00,
2013-11-20 15:19:00,38.3,29.7,30.33,East,95,10.4,10.4,71,0.00,CLR,,0.00,WeatherDisplay:10.37,2013-11-20 20:19:00,
2013-11-20 15:24:00,38.1,29.5,30.33,SE,125,10.4,10.4,71,0.00,CLR,,0.00,WeatherDisplay:10.37,2013-11-20 20:24:00,
2013-11-20 15:29:00,38.1,29.5,30.33,SE,138,10.4,10.4,71,0.00,CLR,,0.00,WeatherDisplay:10.37,2013-11-20 20:29:00,
2013-11-20 15:34:00,37.9,29.4,30.33,SE,131,10.4,10.4,71,0.00,CLR,,0.00,WeatherDisplay:10.37,2013-11-20 20:34:00,
2013-11-20 15:39:00,37.8,29.2,30.33,SE,133,11.5,11.5,71,0.00,CLR,,0.00,WeatherDisplay:10.37,2013-11-20 20:39:00,
2013-11-20 15:44:00,37.6,29.0,30.33,SE,135,9.2,9.2,71,0.00,CLR,,0.00,WeatherDisplay:10.37,2013-11-20 20:44:00,
2013-11-20 15:49:00,37.6,29.0,30.33,SE,125,9.2,9.2,71,0.00,CLR,,0.00,WeatherDisplay:10.37,2013-11-20 20:49:00,
2013-11-20 15:54:00,37.4,28.9,30.33,ESE,117,9.2,9.2,71,0.00,CLR,,0.00,WeatherDisplay:10.37,2013-11-20 20:54:00,
2013-11-20 15:59:00,37.2,29.0,30.33,South,176,9.2,9.2,72,0.00,CLR,,0.00,WeatherDisplay:10.37,2013-11-20 20:59:00,
2013-11-20 16:04:00,37.0,28.8,30.33,ESE,120,11.5,11.5,72,0.00,CLR,,0.00,WeatherDisplay:10.37,2013-11-20 21:04:00,
2013-11-20 16:09:00,36.9,28.7,30.33,ESE,117,11.5,11.5,72,0.00,CLR,,0.00,WeatherDisplay:10.37,2013-11-20 21:09:00,
2013-11-20 16:14:00,36.7,27.5,30.33,SE,136,11.5,11.5,69,0.00,CLR,,0.00,WeatherDisplay:10.37,2013-11-20 21:14:00,
2013-11-20 16:19:00,36.5,27.3,30.33,SE,125,12.7,12.7,69,0.00,CLR,,0.00,WeatherDisplay:10.37,2013-11-20 21:19:00,
2013-11-20 16:24:00,36.3,27.1,30.33,SE,144,8.1,8.1,69,0.00,CLR,,0.00,WeatherDisplay:10.37,2013-11-20 21:24:00,
2013-11-20 16:29:00,36.1,26.9,30.33,ESE,118,10.4,10.4,69,0.00,CLR,,0.00,WeatherDisplay:10.37,2013-11-20 21:29:00,
2013-11-20 16:34:00,36.0,26.8,30.33,SE,144,8.1,8.1,69,0.00,CLR,,0.00,WeatherDisplay:10.37,2013-11-20 21:34:00,
2013-11-20 16:39:00,35.8,26.6,30.33,SE,127,8.1,8.1,69,0.00,CLR,,0.00,WeatherDisplay:10.37,2013-11-20 21:39:00,
2013-11-20 16:44:00,35.4,26.6,30.33,SE,124,8.1,8.1,70,0.00,CLR,,0.00,WeatherDisplay:10.37,2013-11-20 21:44:00,
2013-11-20 16:49:00,35.1,26.3,30.33,ESE,114,9.2,9.2,70,0.00,CLR,,0.00,WeatherDisplay:10.37,2013-11-20 21:49:00,
2013-11-20 16:54:00,34.9,26.1,30.33,SE,128,8.1,8.1,70,0.00,CLR,,0.00,WeatherDisplay:10.37,2013-11-20 21:54:00,
2013-11-20 16:59:00,34.9,26.1,30.33,SSE,168,8.1,8.1,70,0.00,CLR,,0.00,WeatherDisplay:10.37,2013-11-20 21:59:00,
2013-11-20 17:04:00,34.9,26.1,30.33,SE,131,5.8,5.8,70,0.00,CLR,,0.00,WeatherDisplay:10.37,2013-11-20 22:04:00,
2013-11-20 17:09:00,34.7,25.9,30.33,ESE,109,12.7,12.7,70,0.00,CLR,,0.00,WeatherDisplay:10.37,2013-11-20 22:09:00,
2013-11-20 17:14:00,34.5,25.7,30.33,ESE,111,6.3,6.3,70,0.00,CLR,,0.00,WeatherDisplay:10.37,2013-11-20 22:14:00,
2013-11-20 17:19:00,34.2,25.4,30.33,SE,143,5.8,5.8,70,0.00,CLR,,0.00,WeatherDisplay:10.37,2013-11-20 22:19:00,
2013-11-20 17:24:00,33.8,25.0,30.33,ESE,111,5.8,5.8,70,0.00,CLR,,0.00,WeatherDisplay:10.37,2013-11-20 22:24:00,
2013-11-20 17:29:00,33.6,24.9,30.33,ESE,109,8.1,8.1,70,0.00,CLR,,0.00,WeatherDisplay:10.37,2013-11-20 22:29:00,
2013-11-20 17:34:00,33.4,24.7,30.33,SE,143,5.8,5.8,70,0.00,CLR,,0.00,WeatherDisplay:10.37,2013-11-20 22:34:00,
2013-11-20 17:39:00,33.3,24.5,30.33,ESE,117,8.1,8.1,70,0.00,CLR,,0.00,WeatherDisplay:10.37,2013-11-20 22:39:00,
2013-11-20 17:44:00,33.4,24.7,30.33,SE,145,8.1,8.1,70,0.00,CLR,,0.00,WeatherDisplay:10.37,2013-11-20 22:44:00,
2013-11-20 17:49:00,33.4,24.7,30.33,South,190,8.1,8.1,70,0.00,CLR,,0.00,WeatherDisplay:10.37,2013-11-20 22:49:00,
2013-11-20 17:54:00,33.3,24.5,30.33,South,185,9.2,9.2,70,0.00,CLR,,0.00,WeatherDisplay:10.37,2013-11-20 22:54:00,
2013-11-20 17:59:00,33.4,24.7,30.33,SE,138,9.2,9.2,70,0.00,CLR,,0.00,WeatherDisplay:10.37,2013-11-20 22:59:00,
2013-11-20 18:04:00,33.4,24.7,30.33,SSE,168,8.7,8.7,70,0.00,CLR,,0.00,WeatherDisplay:10.37,2013-11-20 23:04:00,
2013-11-20 18:09:00,33.3,24.5,30.33,ESE,113,8.1,8.1,70,0.00,CLR,,0.00,WeatherDisplay:10.37,2013-11-20 23:09:00,
2013-11-20 18:14:00,33.3,24.5,30.33,South,183,5.8,5.8,70,0.00,CLR,,0.00,WeatherDisplay:10.37,2013-11-20 23:14:00,
2013-11-20 18:19:00,33.1,24.4,30.33,SSE,160,11.5,11.5,70,0.00,CLR,,0.00,WeatherDisplay:10.37,2013-11-20 23:19:00,
2013-11-20 18:24:00,33.1,24.4,30.33,SE,139,10.4,10.4,70,0.00,CLR,,0.00,WeatherDisplay:10.37,2013-11-20 23:24:00,
2013-11-20 18:29:00,33.1,24.4,30.33,South,183,11.5,11.5,70,0.00,CLR,,0.00,WeatherDisplay:10.37,2013-11-20 23:29:00,
2013-11-20 18:34:00,33.1,24.4,30.33,SSE,147,8.1,8.1,70,0.00,CLR,,0.00,WeatherDisplay:10.37,2013-11-20 23:34:00,
2013-11-20 18:39:00,32.9,24.2,30.33,SE,125,11.5,11.5,70,0.00,CLR,,0.00,WeatherDisplay:10.37,2013-11-20 23:39:00,
2013-11-20 18:44:00,32.9,24.2,30.33,SSE,164,13.8,13.8,70,0.00,CLR,,0.00,WeatherDisplay:10.37,2013-11-20 23:44:00,
2013-11-20 18:49:00,32.7,24.0,30.33,SSE,150,11.5,11.5,70,0.00,CLR,,0.00,WeatherDisplay:10.37,2013-11-20 23:49:00,
2013-11-20 18:54:00,32.7,24.0,30.36,ESE,119,10.9,10.9,70,0.00,CLR,,0.00,WeatherDisplay:10.37,2013-11-20 23:54:00,
2013-11-20 18:59:00,32.9,24.2,30.36,ESE,117,8.1,8.1,70,0.00,CLR,,0.00,WeatherDisplay:10.37,2013-11-20 23:59:00,
2013-11-20 19:04:00,32.9,24.2,30.36,ESE,106,8.1,8.1,70,0.00,CLR,,0.00,WeatherDisplay:10.37,2013-11-21 00:04:00,
2013-11-20 19:09:00,32.9,24.2,30.36,SE,141,15.0,15.0,70,0.00,CLR,,0.00,WeatherDisplay:10.37,2013-11-21 00:09:00,
2013-11-20 19:14:00,32.9,24.2,30.36,SSE,161,11.5,11.5,70,0.00,CLR,,0.00,WeatherDisplay:10.37,2013-11-21 00:14:00,
2013-11-20 19:19:00,32.7,24.0,30.36,SE,146,9.2,9.2,70,0.00,CLR,,0.00,WeatherDisplay:10.37,2013-11-21 00:19:00,
2013-11-20 19:24:00,32.4,23.7,30.36,SE,136,9.2,9.2,70,0.00,CLR,,0.00,WeatherDisplay:10.37,2013-11-21 00:24:00,
2013-11-20 19:29:00,32.2,23.5,30.36,ESE,116,8.1,8.1,70,0.00,CLR,,0.00,WeatherDisplay:10.37,2013-11-21 00:29:00,
2013-11-20 19:34:00,31.8,23.1,30.36,SE,137,10.4,10.4,70,0.00,CLR,,0.00,WeatherDisplay:10.37,2013-11-21 00:34:00,
2013-11-20 19:39:00,32.2,23.5,30.36,South,175,10.4,10.4,70,0.00,CLR,,0.00,WeatherDisplay:10.37,2013-11-21 00:39:00,
2013-11-20 19:44:00,32.4,23.7,30.36,SSE,149,10.4,10.4,70,0.00,CLR,,0.00,WeatherDisplay:10.37,2013-11-21 00:44:00,
2013-11-20 19:49:00,32.4,23.7,30.36,SSE,164,8.1,8.1,70,0.00,CLR,,0.00,WeatherDisplay:10.37,2013-11-21 00:49:00,
2013-11-20 19:54:00,32.4,23.7,30.36,South,171,8.1,8.1,70,0.00,CLR,,0.00,WeatherDisplay:10.37,2013-11-21 00:54:00,
2013-11-20 19:59:00,32.2,23.5,30.36,SSE,152,9.2,9.2,70,0.00,CLR,,0.00,WeatherDisplay:10.37,2013-11-21 00:59:00,
2013-11-20 20:04:00,32.0,23.3,30.36,South,179,10.4,10.4,70,0.00,CLR,,0.00,WeatherDisplay:10.37,2013-11-21 01:04:00,
2013-11-20 20:09:00,31.8,23.1,30.36,SE,143,10.4,10.4,70,0.00,CLR,,0.00,WeatherDisplay:10.37,2013-11-21 01:09:00,
2013-11-20 20:14:00,31.6,23.0,30.36,SE,137,10.4,10.4,70,0.00,CLR,,0.00,WeatherDisplay:10.37,2013-11-21 01:14:00,
2013-11-20 20:19:00,31.3,22.6,30.36,SSE,161,8.1,8.1,70,0.00,CLR,,0.00,WeatherDisplay:10.37,2013-11-21 01:19:00,
2013-11-20 20:24:00,31.1,22.5,30.36,South,175,5.8,5.8,70,0.00,CLR,,0.00,WeatherDisplay:10.37,2013-11-21 01:24:00,
2013-11-20 20:29:00,31.1,22.5,30.36,East,96,8.1,8.1,70,0.00,CLR,,0.00,WeatherDisplay:10.37,2013-11-21 01:29:00,
2013-11-20 20:34:00,30.9,22.3,30.36,SSE,162,8.1,8.1,70,0.00,CLR,,0.00,WeatherDisplay:10.37,2013-11-21 01:34:00,
2013-11-20 20:39:00,31.1,22.5,30.36,SSE,152,10.5,10.5,70,0.00,CLR,,0.00,WeatherDisplay:10.37,2013-11-21 01:39:00,
2013-11-20 20:44:00,31.3,22.6,30.36,SSE,151,8.1,8.1,70,0.00,CLR,,0.00,WeatherDisplay:10.37,2013-11-21 01:44:00,
2013-11-20 20:49:00,31.3,22.6,30.36,SE,133,8.1,8.1,70,0.00,CLR,,0.00,WeatherDisplay:10.37,2013-11-21 01:49:00,
2013-11-20 20:54:00,31.1,22.5,30.36,SE,133,8.1,8.1,70,0.00,CLR,,0.00,WeatherDisplay:10.37,2013-11-21 01:54:00,
2013-11-20 20:59:00,30.6,21.9,30.36,SSE,151,8.1,8.1,70,0.00,CLR,,0.00,WeatherDisplay:10.37,2013-11-21 01:59:00,
2013-11-20 21:04:00,30.2,21.6,30.36,SE,143,10.4,10.4,70,0.00,CLR,,0.00,WeatherDisplay:10.37,2013-11-21 02:04:00,
2013-11-20 21:09:00,30.2,21.6,30.36,South,178,8.1,8.1,70,0.00,CLR,,0.00,WeatherDisplay:10.37,2013-11-21 02:09:00,
2013-11-20 21:14:00,30.2,21.6,30.36,SSE,162,9.2,9.2,70,0.00,CLR,,0.00,WeatherDisplay:10.37,2013-11-21 02:14:00,
2013-11-20 21:19:00,30.2,21.6,30.36,SE,145,12.7,12.7,70,0.00,CLR,,0.00,WeatherDisplay:10.37,2013-11-21 02:19:00,
2013-11-20 21:24:00,30.6,21.9,30.36,SSE,148,9.2,9.2,70,0.00,CLR,,0.00,WeatherDisplay:10.37,2013-11-21 02:24:00,
2013-11-20 21:29:00,30.6,21.9,30.36,South,182,8.1,8.1,70,0.00,CLR,,0.00,WeatherDisplay:10.37,2013-11-21 02:29:00,
2013-11-20 21:34:00,30.4,21.8,30.36,South,171,8.1,8.1,70,0.00,CLR,,0.00,WeatherDisplay:10.37,2013-11-21 02:34:00,
2013-11-20 21:39:00,30.6,21.9,30.36,SE,139,5.8,5.8,70,0.00,CLR,,0.00,WeatherDisplay:10.37,2013-11-21 02:39:00,
2013-11-20 21:44:00,30.6,21.9,30.36,South,189,4.9,4.9,70,0.00,CLR,,0.00,WeatherDisplay:10.37,2013-11-21 02:44:00,
2013-11-20 21:49:00,30.4,21.8,30.36,South,181,12.7,12.7,70,0.00,CLR,,0.00,WeatherDisplay:10.37,2013-11-21 02:49:00,
2013-11-20 21:54:00,30.6,21.9,30.36,South,179,8.1,8.1,70,0.00,CLR,,0.00,WeatherDisplay:10.37,2013-11-21 02:54:00,
2013-11-20 21:59:00,30.4,21.8,30.36,South,170,9.2,9.2,70,0.00,CLR,,0.00,WeatherDisplay:10.37,2013-11-21 02:59:00,
2013-11-20 22:04:00,30.6,21.9,30.36,SSE,152,8.1,8.1,70,0.00,CLR,,0.00,WeatherDisplay:10.37,2013-11-21 03:04:00,
2013-11-20 22:09:00,30.7,22.1,30.36,SE,145,9.2,9.2,70,0.00,CLR,,0.00,WeatherDisplay:10.37,2013-11-21 03:09:00,
2013-11-20 22:14:00,30.7,22.1,30.36,SE,142,13.8,13.8,70,0.00,CLR,,0.00,WeatherDisplay:10.37,2013-11-21 03:14:00,
2013-11-20 22:20:00,30.7,22.1,30.36,South,178,8.1,8.1,70,0.00,CLR,,0.00,WeatherDisplay:10.37,2013-11-21 03:20:00,
2013-11-20 22:25:00,30.9,22.3,30.36,SE,146,10.4,10.4,70,0.00,CLR,,0.00,WeatherDisplay:10.37,2013-11-21 03:25:00,
2013-11-20 22:30:00,31.1,22.5,30.36,SE,124,10.4,10.4,70,0.00,CLR,,0.00,WeatherDisplay:10.37,2013-11-21 03:30:00,
2013-11-20 22:35:00,30.9,22.3,30.36,South,180,8.1,8.1,70,0.00,CLR,,0.00,WeatherDisplay:10.37,2013-11-21 03:35:00,
2013-11-20 22:40:00,30.6,21.9,30.36,SE,129,11.5,11.5,70,0.00,CLR,,0.00,WeatherDisplay:10.37,2013-11-21 03:40:00,
2013-11-20 22:45:00,30.7,22.1,30.36,SE,138,12.7,12.7,70,0.00,CLR,,0.00,WeatherDisplay:10.37,2013-11-21 03:45:00,
2013-11-20 22:50:00,30.6,21.9,30.36,SE,126,15.0,15.0,70,0.00,CLR,,0.00,WeatherDisplay:10.37,2013-11-21 03:50:00,
2013-11-20 22:55:00,30.4,21.8,30.36,SE,134,11.5,11.5,70,0.00,CLR,,0.00,WeatherDisplay:10.37,2013-11-21 03:55:00,
2013-11-20 23:00:00,30.4,21.8,30.36,SE,145,12.3,12.3,70,0.00,CLR,,0.00,WeatherDisplay:10.37,2013-11-21 04:00:00,
2013-11-20 23:05:00,30.2,21.6,30.36,East,100,8.1,8.1,70,0.00,CLR,,0.00,WeatherDisplay:10.37,2013-11-21 04:05:00,
2013-11-20 23:10:00,30.0,21.4,30.36,SE,146,5.8,5.8,70,0.00,CLR,,0.00,WeatherDisplay:10.37,2013-11-21 04:10:00,
2013-11-20 23:15:00,29.7,21.1,30.36,SSE,160,9.2,9.2,70,0.00,CLR,,0.00,WeatherDisplay:10.37,2013-11-21 04:15:00,
2013-11-20 23:20:00,29.5,20.9,30.36,SSE,147,12.7,12.7,70,0.00,CLR,,0.00,WeatherDisplay:10.37,2013-11-21 04:20:00,
2013-11-20 23:25:00,29.3,20.7,30.36,SW,217,9.2,9.2,70,0.00,CLR,,0.00,WeatherDisplay:10.37,2013-11-21 04:25:00,
2013-11-20 23:30:00,29.1,20.6,30.36,SSE,161,8.1,8.1,70,0.00,CLR,,0.00,WeatherDisplay:10.37,2013-11-21 04:30:00,
2013-11-20 23:35:00,29.5,20.9,30.36,SSW,212,12.7,12.7,70,0.00,CLR,,0.00,WeatherDisplay:10.37,2013-11-21 04:35:00,
2013-11-20 23:40:00,29.5,20.9,30.36,SE,143,10.4,10.4,70,0.00,CLR,,0.00,WeatherDisplay:10.37,2013-11-21 04:40:00,
2013-11-20 23:45:00,29.3,20.7,30.36,SSW,192,8.1,8.1,70,0.00,CLR,,0.00,WeatherDisplay:10.37,2013-11-21 04:45:00,
2013-11-20 23:50:00,28.9,20.4,30.36,SSW,203,8.1,8.1,70,0.00,CLR,,0.00,WeatherDisplay:10.37,2013-11-21 04:50:00,
2013-11-20 23:55:00,28.8,20.2,30.36,SE,143,10.9,10.9,70,0.00,CLR,,0.00,WeatherDisplay:10.37,2013-11-21 04:55:00,